createdAt,value
2023-04-01T00:00:57.575Z,98405.98
2023-04-01T00:03:28.453Z,98403.89
2023-04-01T00:05:58.546Z,98403.38
2023-04-01T00:08:27.885Z,98401.99
2023-04-01T00:10:56.882Z,98402.48
2023-04-01T00:13:27.420Z,98406.05
2023-04-01T00:15:57.571Z,98410.98
2023-04-01T00:18:26.785Z,98414.73
2023-04-01T00:20:54.980Z,98411.32
2023-04-01T00:23:23.229Z,98412.77
2023-04-01T00:25:51.765Z,98416.14
2023-04-01T00:28:21.448Z,98417.61
2023-04-01T00:30:49.903Z,98416.45
2023-04-01T00:33:18.476Z,98417.73
2023-04-01T00:35:47.315Z,98418.80
2023-04-01T00:38:15.746Z,98419.02
2023-04-01T00:40:47.246Z,98424.61
2023-04-01T00:43:21.582Z,98427.95
2023-04-01T00:45:50.915Z,98432.17
2023-04-01T00:48:27.169Z,98431.70
2023-04-01T00:51:03.800Z,98432.25
2023-04-01T00:53:34.207Z,98430.01
2023-04-01T00:56:08.384Z,98430.20
2023-04-01T00:58:44.952Z,98432.69
2023-04-01T01:01:13.447Z,98433.41
2023-04-01T01:03:41.752Z,98435.18
2023-04-01T01:06:23.192Z,98435.41
2023-04-01T01:09:13.147Z,98434.59
2023-04-01T01:11:48.599Z,98434.28
2023-04-01T01:14:28.988Z,98441.73
2023-04-01T01:17:24.149Z,98443.34
2023-04-01T01:20:39.976Z,98445.79
2023-04-01T01:23:14.076Z,98444.96
2023-04-01T01:26:07.650Z,98443.26
2023-04-01T01:29:13.230Z,98446.23
2023-04-01T01:32:16.272Z,98446.09
2023-04-01T01:35:29.708Z,98442.97
2023-04-01T01:38:12.594Z,98446.80
2023-04-01T01:40:44.977Z,98444.20
2023-04-01T01:43:17.915Z,98446.80
2023-04-01T01:45:52.064Z,98447.31
2023-04-01T01:48:21.115Z,98448.36
2023-04-01T01:50:50.946Z,98455.33
2023-04-01T01:53:19.693Z,98453.08
2023-04-01T01:55:49.150Z,98459.02
2023-04-01T01:58:48.972Z,98456.27
2023-04-01T02:01:29.105Z,98457.16
2023-04-01T02:03:59.654Z,98457.16
2023-04-01T02:06:31.773Z,98458.20
2023-04-01T02:09:11.780Z,98456.48
2023-04-01T02:11:59.979Z,98457.17
2023-04-01T02:14:44.762Z,98454.77
2023-04-01T02:17:19.306Z,98458.77
2023-04-01T02:19:53.405Z,98458.09
2023-04-01T02:22:26.112Z,98461.21
2023-04-01T02:24:59.308Z,98461.94
2023-04-01T02:27:28.260Z,98469.91
2023-04-01T02:29:56.577Z,98473.04
2023-04-01T02:32:26.628Z,98472.70
2023-04-01T02:34:55.691Z,98473.74
2023-04-01T02:37:24.688Z,98475.50
2023-04-01T02:39:52.908Z,98475.84
2023-04-01T02:42:21.238Z,98480.72
2023-04-01T02:44:49.557Z,98480.38
2023-04-01T02:47:17.788Z,98482.48
2023-04-01T02:49:46.043Z,98487.15
2023-04-01T02:52:14.275Z,98494.80
2023-04-01T02:54:42.467Z,98495.16
2023-04-01T02:57:10.754Z,98496.20
2023-04-01T02:59:39.054Z,98501.42
2023-04-01T03:02:08.171Z,98504.20
2023-04-01T03:04:36.644Z,98508.55
2023-04-01T03:07:05.041Z,98514.79
2023-04-01T03:09:34.098Z,98513.41
2023-04-01T03:12:02.316Z,98519.48
2023-04-01T03:14:30.660Z,98520.86
2023-04-01T03:16:58.980Z,98525.20
2023-04-01T03:19:27.292Z,98524.34
2023-04-01T03:21:55.640Z,98529.70
2023-04-01T03:24:23.876Z,98533.35
2023-04-01T03:26:52.124Z,98533.70
2023-04-01T03:29:20.477Z,98533.36
2023-04-01T03:31:48.660Z,98535.44
2023-04-01T03:34:16.916Z,98535.10
2023-04-01T03:36:45.419Z,98537.02
2023-04-01T03:39:13.701Z,98539.63
2023-04-01T03:41:41.894Z,98544.65
2023-04-01T03:44:10.136Z,98544.14
2023-04-01T03:46:38.519Z,98545.53
2023-04-01T03:49:14.044Z,98547.27
2023-04-01T03:51:44.104Z,98549.86
2023-04-01T03:54:12.244Z,98552.82
2023-04-01T03:56:40.571Z,98550.91
2023-04-01T03:59:09.822Z,98556.46
2023-04-01T04:01:38.072Z,98560.63
2023-04-01T04:04:06.859Z,98562.52
2023-04-01T04:06:35.482Z,98563.40
2023-04-01T04:09:03.823Z,98569.13
2023-04-01T04:11:33.844Z,98570.67
2023-04-01T04:14:04.062Z,98572.75
2023-04-01T04:16:32.596Z,98579.52
2023-04-01T04:19:01.103Z,98585.23
2023-04-01T04:21:29.405Z,98585.92
2023-04-01T04:23:57.623Z,98591.29
2023-04-01T04:26:26.950Z,98591.46
2023-04-01T04:28:56.551Z,98594.93
2023-04-01T04:31:26.466Z,98594.08
2023-04-01T04:33:55.172Z,98594.59
2023-04-01T04:36:24.223Z,98597.02
2023-04-01T04:38:52.631Z,98596.50
2023-04-01T04:41:23.292Z,98595.46
2023-04-01T04:43:59.803Z,98600.66
2023-04-01T04:46:28.145Z,98596.50
2023-04-01T04:48:56.603Z,98597.36
2023-04-01T04:51:24.995Z,98602.23
2023-04-01T04:53:53.390Z,98607.08
2023-04-01T04:56:22.896Z,98612.10
2023-04-01T04:58:51.189Z,98612.09
2023-04-01T05:01:20.201Z,98611.58
2023-04-01T05:03:48.815Z,98613.98
2023-04-01T05:06:17.965Z,98619.55
2023-04-01T05:08:46.606Z,98617.63
2023-04-01T05:11:19.864Z,98618.14
2023-04-01T05:13:49.087Z,98623.87
2023-04-01T05:16:20.577Z,98624.58
2023-04-01T05:18:49.224Z,98627.15
2023-04-01T05:21:17.510Z,98630.80
2023-04-01T05:23:45.802Z,98632.36
2023-04-01T05:26:15.956Z,98638.08
2023-04-01T05:28:44.109Z,98640.84
2023-04-01T05:31:12.852Z,98644.33
2023-04-01T05:33:41.253Z,98646.73
2023-04-01T05:36:17.365Z,98650.38
2023-04-01T05:38:47.329Z,98649.52
2023-04-01T05:41:16.586Z,98650.04
2023-04-01T05:43:45.211Z,98651.92
2023-04-01T05:46:13.566Z,98652.63
2023-04-01T05:48:41.883Z,98655.73
2023-04-01T05:51:17.314Z,98655.05
2023-04-01T05:53:45.655Z,98659.91
2023-04-01T05:56:14.068Z,98663.91
2023-04-01T05:58:42.299Z,98665.80
2023-04-01T06:01:16.246Z,98668.92
2023-04-01T06:03:45.151Z,98670.65
2023-04-01T06:06:24.523Z,98674.46
2023-04-01T06:08:54.246Z,98675.67
2023-04-01T06:11:34.678Z,98677.08
2023-04-01T06:14:08.976Z,98679.84
2023-04-01T06:16:58.995Z,98684.34
2023-04-01T06:20:04.550Z,98684.52
2023-04-01T06:23:11.229Z,98690.41
2023-04-01T06:25:55.410Z,98695.77
2023-04-01T06:28:57.898Z,98700.11
2023-04-01T06:31:41.332Z,98704.61
2023-04-01T06:34:31.280Z,98708.42
2023-04-01T06:36:59.415Z,98711.89
2023-04-01T06:39:49.122Z,98713.61
2023-04-01T06:42:37.831Z,98716.39
2023-04-01T06:45:27.861Z,98719.16
2023-04-01T06:48:19.029Z,98714.66
2023-04-01T06:51:20.684Z,98722.11
2023-04-01T06:53:59.045Z,98723.48
2023-04-01T06:56:29.676Z,98722.45
2023-04-01T06:59:11.359Z,98728.35
2023-04-01T07:01:43.967Z,98729.74
2023-04-01T07:05:15.963Z,98732.69
2023-04-01T07:09:06.295Z,98743.59
2023-04-01T07:12:35.859Z,98746.71
2023-04-01T07:16:27.926Z,98749.31
2023-04-01T07:20:23.681Z,98751.39
2023-04-01T07:24:15.995Z,98758.50
2023-04-01T07:28:05.568Z,98767.15
2023-04-01T07:31:53.203Z,98766.98
2023-04-01T07:35:51.361Z,98761.77
2023-04-01T07:43:37.677Z,98770.64
2023-04-01T07:47:28.772Z,98777.39
2023-04-01T07:51:36.554Z,98782.44
2023-04-01T07:55:28.702Z,98788.16
2023-04-01T07:59:22.915Z,98791.98
2023-04-01T08:03:36.931Z,98802.73
2023-04-01T08:07:40.993Z,98808.64
2023-04-01T08:11:40.237Z,98816.61
2023-04-01T08:15:43.492Z,98819.40
2023-04-01T08:19:44.517Z,98829.80
2023-04-01T08:23:38.684Z,98836.04
2023-04-01T08:27:31.291Z,98839.48
2023-04-01T08:31:29.537Z,98841.05
2023-04-01T08:35:19.003Z,98845.71
2023-04-01T08:39:08.410Z,98851.09
2023-04-01T08:43:03.380Z,98850.89
2023-04-01T08:47:07.612Z,98853.33
2023-04-01T08:51:01.480Z,98859.04
2023-04-01T08:54:53.481Z,98857.48
2023-04-01T09:06:48.363Z,98865.77
2023-04-01T09:10:42.383Z,98873.04
2023-04-01T09:15:15.161Z,98879.84
2023-04-01T09:19:20.499Z,98882.45
2023-04-01T09:23:27.733Z,98880.73
2023-04-01T09:27:16.385Z,98884.20
2023-04-01T09:31:15.141Z,98889.05
2023-04-01T09:35:11.865Z,98891.97
2023-04-01T09:39:10.319Z,98892.13
2023-04-01T09:43:05.793Z,98900.25
2023-04-01T09:47:00.128Z,98902.31
2023-04-01T09:50:48.169Z,98909.58
2023-04-01T09:54:46.207Z,98916.50
2023-04-01T09:58:46.377Z,98920.63
2023-04-01T10:02:35.568Z,98925.85
2023-04-01T10:06:23.830Z,98931.08
2023-04-01T10:10:40.536Z,98941.11
2023-04-01T10:14:28.407Z,98942.88
2023-04-01T10:18:26.834Z,98954.14
2023-04-01T10:22:28.020Z,98948.40
2023-04-01T10:26:32.334Z,98953.62
2023-04-01T10:30:39.047Z,98958.83
2023-04-01T10:34:26.049Z,98965.27
2023-04-01T10:38:34.646Z,98968.73
2023-04-01T10:41:34.954Z,98973.10
2023-04-01T10:44:30.637Z,98975.02
2023-04-01T10:47:16.970Z,98975.35
2023-04-01T10:49:58.088Z,98977.77
2023-04-01T10:53:07.364Z,98982.77
2023-04-01T10:56:03.722Z,98985.02
2023-04-01T10:58:47.452Z,98988.13
2023-04-01T11:01:31.051Z,98988.48
2023-04-01T11:04:19.577Z,98987.29
2023-04-01T11:07:15.696Z,98989.90
2023-04-01T11:10:21.852Z,98994.60
2023-04-01T11:13:12.191Z,98996.33
2023-04-01T11:16:18.659Z,99001.02
2023-04-01T11:18:54.184Z,99006.92
2023-04-01T11:21:34.797Z,99014.02
2023-04-01T11:24:21.375Z,99022.34
2023-04-01T11:27:03.383Z,99018.17
2023-04-01T11:29:40.521Z,99020.61
2023-04-01T11:32:36.952Z,99027.90
2023-04-01T11:35:18.326Z,99030.15
2023-04-01T11:38:14.682Z,99035.17
2023-04-01T11:41:03.571Z,99033.58
2023-04-01T11:43:41.288Z,99042.06
2023-04-01T11:46:28.976Z,99046.70
2023-04-01T11:49:15.863Z,99052.05
2023-04-01T11:52:07.119Z,99058.96
2023-04-01T11:54:38.352Z,99058.77
2023-04-01T11:57:31.944Z,99058.94
2023-04-01T12:00:19.400Z,99063.95
2023-04-01T12:02:53.950Z,99066.52
2023-04-01T12:05:49.575Z,99070.66
2023-04-01T12:08:25.737Z,99072.92
2023-04-01T12:11:03.083Z,99074.65
2023-04-01T12:13:46.889Z,99078.46
2023-04-01T12:16:24.285Z,99080.67
2023-04-01T12:19:37.836Z,99089.34
2023-04-01T12:22:21.051Z,99094.31
2023-04-01T12:24:56.312Z,99096.02
2023-04-01T12:27:45.226Z,99098.98
2023-04-01T12:30:23.040Z,99101.40
2023-04-01T12:33:07.094Z,99104.48
2023-04-01T12:36:06.079Z,99107.41
2023-04-01T12:38:52.787Z,99111.04
2023-04-01T12:42:04.330Z,99113.27
2023-04-01T12:44:35.533Z,99118.96
2023-04-01T12:47:18.068Z,99120.85
2023-04-01T12:50:05.083Z,99127.73
2023-04-01T12:52:46.158Z,99129.48
2023-04-01T12:55:42.288Z,99132.23
2023-04-01T12:58:18.298Z,99134.48
2023-04-01T13:01:04.558Z,99136.38
2023-04-01T13:03:42.307Z,99147.48
2023-04-01T13:06:49.886Z,99149.95
2023-04-01T13:09:30.030Z,99157.04
2023-04-01T13:12:27.660Z,99163.09
2023-04-01T13:15:31.995Z,99168.77
2023-04-01T13:18:28.556Z,99174.44
2023-04-01T13:21:18.382Z,99174.94
2023-04-01T13:24:25.727Z,99173.66
2023-04-01T13:27:05.035Z,99172.94
2023-04-01T13:30:09.208Z,99174.63
2023-04-01T13:32:52.929Z,99181.35
2023-04-01T13:35:36.913Z,99179.07
2023-04-01T13:38:26.431Z,99180.96
2023-04-01T13:41:03.881Z,99188.21
2023-04-01T13:43:38.316Z,99184.73
2023-04-01T13:46:19.568Z,99188.52
2023-04-01T13:49:09.029Z,99195.74
2023-04-01T13:51:40.084Z,99198.48
2023-04-01T13:54:27.456Z,99202.25
2023-04-01T13:57:30.789Z,99204.48
2023-04-01T14:00:36.655Z,99205.01
2023-04-01T14:03:41.203Z,99217.30
2023-04-01T14:06:28.959Z,99216.77
2023-04-01T14:09:34.810Z,99219.31
2023-04-01T14:12:11.892Z,99222.59
2023-04-01T14:15:17.176Z,99228.15
2023-04-01T14:18:10.418Z,99231.27
2023-04-01T14:20:52.945Z,99237.42
2023-04-01T14:23:36.054Z,99241.85
2023-04-01T14:26:26.979Z,99245.64
2023-04-01T14:29:24.407Z,99248.93
2023-04-01T14:32:13.071Z,99251.65
2023-04-01T14:35:07.266Z,99246.77
2023-04-01T14:37:59.366Z,99253.00
2023-04-01T14:40:29.761Z,99258.19
2023-04-01T14:43:22.823Z,99256.65
2023-04-01T14:46:00.195Z,99263.59
2023-04-01T14:48:36.393Z,99262.02
2023-04-01T14:51:16.888Z,99264.58
2023-04-01T14:53:58.547Z,99272.11
2023-04-01T14:56:41.742Z,99278.48
2023-04-01T14:59:18.772Z,99286.11
2023-04-01T15:02:04.988Z,99287.50
2023-04-01T15:04:39.601Z,99290.77
2023-04-01T15:07:20.546Z,99293.83
2023-04-01T15:09:49.015Z,99296.05
2023-04-01T15:12:24.594Z,99299.52
2023-04-01T15:15:12.786Z,99299.67
2023-04-01T15:17:43.942Z,99306.02
2023-04-01T15:20:27.444Z,99306.85
2023-04-01T15:23:34.487Z,99310.32
2023-04-01T15:26:08.803Z,99315.35
2023-04-01T15:28:42.529Z,99318.26
2023-04-01T15:31:20.300Z,99327.08
2023-04-01T15:33:55.258Z,99330.83
2023-04-01T15:36:29.467Z,99332.20
2023-04-01T15:39:09.908Z,99335.42
2023-04-01T15:41:47.768Z,99343.48
2023-04-01T15:44:48.955Z,99344.14
2023-04-01T15:47:26.836Z,99347.04
2023-04-01T15:50:22.498Z,99355.48
2023-04-01T15:53:12.525Z,99358.35
2023-04-01T15:55:46.501Z,99361.40
2023-04-01T15:58:25.421Z,99361.54
2023-04-01T16:01:22.547Z,99365.31
2023-04-01T16:04:17.898Z,99370.35
2023-04-01T16:06:52.079Z,99369.30
2023-04-01T16:09:21.036Z,99373.77
2023-04-01T16:12:25.226Z,99378.77
2023-04-01T16:15:21.196Z,99379.77
2023-04-01T16:17:52.701Z,99387.17
2023-04-01T16:20:27.825Z,99392.67
2023-04-01T16:23:21.945Z,99395.77
2023-04-01T16:26:09.626Z,99407.70
2023-04-01T16:29:16.396Z,99413.55
2023-04-01T16:31:53.325Z,99419.95
2023-04-01T16:35:05.158Z,99427.69
2023-04-01T16:37:43.104Z,99427.41
2023-04-01T16:40:42.967Z,99435.67
2023-04-01T16:43:11.390Z,99437.84
2023-04-01T16:45:48.760Z,99443.13
2023-04-01T16:48:24.039Z,99448.98
2023-04-01T16:51:12.963Z,99453.16
2023-04-01T16:54:19.436Z,99460.05
2023-04-01T16:57:06.416Z,99463.61
2023-04-01T16:59:40.256Z,99470.91
2023-04-01T17:02:08.641Z,99476.23
2023-04-01T17:04:49.232Z,99478.99
2023-04-01T17:07:49.522Z,99481.40
2023-04-01T17:10:21.594Z,99489.33
2023-04-01T17:13:08.319Z,99491.39
2023-04-01T17:15:48.169Z,99498.29
2023-04-01T17:18:25.874Z,99504.63
2023-04-01T17:21:00.557Z,99505.77
2023-04-01T17:23:46.903Z,99510.73
2023-04-01T17:26:43.597Z,99518.29
2023-04-01T17:29:32.484Z,99520.30
2023-04-01T17:32:07.033Z,99518.84
2023-04-01T17:34:52.255Z,99524.48
2023-04-01T17:37:35.826Z,99523.41
2023-04-01T17:40:31.273Z,99531.36
2023-04-01T17:43:02.209Z,99537.08
2023-04-01T17:45:33.194Z,99539.68
2023-04-01T17:48:23.895Z,99540.59
2023-04-01T17:51:21.801Z,99546.45
2023-04-01T17:54:24.188Z,99548.78
2023-04-01T17:57:17.494Z,99553.47
2023-04-01T18:00:30.097Z,99556.38
2023-04-01T18:03:12.783Z,99566.35
2023-04-01T18:06:13.220Z,99567.91
2023-04-01T18:09:06.517Z,99571.54
2023-04-01T18:11:40.402Z,99577.80
2023-04-01T18:14:30.323Z,99581.45
2023-04-01T18:17:07.738Z,99582.32
2023-04-01T18:19:42.262Z,99584.15
2023-04-01T18:22:43.055Z,99591.02
2023-04-01T18:25:35.024Z,99598.24
2023-04-01T18:28:31.555Z,99601.60
2023-04-01T18:31:02.858Z,99602.42
2023-04-01T18:33:36.208Z,99610.42
2023-04-01T18:36:22.994Z,99610.75
2023-04-01T18:39:04.414Z,99615.60
2023-04-01T18:42:08.240Z,99617.94
2023-04-01T18:44:48.934Z,99625.28
2023-04-01T18:47:27.125Z,99634.72
2023-04-01T18:50:08.885Z,99640.26
2023-04-01T18:52:42.968Z,99641.06
2023-04-01T18:55:36.426Z,99648.98
2023-04-01T18:58:20.377Z,99655.02
2023-04-01T19:01:06.863Z,99657.46
2023-04-01T19:04:03.036Z,99661.50
2023-04-01T19:06:56.099Z,99663.80
2023-04-01T19:09:29.488Z,99666.97
2023-04-01T19:12:07.196Z,99672.23
2023-04-01T19:15:10.168Z,99672.52
2023-04-01T19:18:07.884Z,99675.86
2023-04-01T19:20:44.841Z,99679.45
2023-04-01T19:23:32.831Z,99685.67
2023-04-01T19:26:15.188Z,99691.39
2023-04-01T19:28:54.991Z,99694.99
2023-04-01T19:31:50.968Z,99696.64
2023-04-01T19:34:44.137Z,99706.50
2023-04-01T19:37:56.966Z,99711.56
2023-04-01T19:40:31.286Z,99713.16
2023-04-01T19:43:23.020Z,99716.16
2023-04-01T19:46:21.561Z,99720.94
2023-04-01T19:49:05.458Z,99722.96
2023-04-01T19:51:42.884Z,99727.70
2023-04-01T19:54:44.983Z,99730.15
2023-04-01T19:57:48.145Z,99735.69
2023-04-01T20:00:37.634Z,99737.21
2023-04-01T20:03:22.005Z,99742.55
2023-04-01T20:06:13.148Z,99742.67
2023-04-01T20:08:43.983Z,99747.69
2023-04-01T20:11:30.720Z,99756.80
2023-04-01T20:14:22.943Z,99759.38
2023-04-01T20:16:59.996Z,99764.30
2023-04-01T20:19:52.838Z,99766.27
2023-04-01T20:22:29.588Z,99771.45
2023-04-01T20:25:12.051Z,99773.89
2023-04-01T20:27:53.195Z,99774.22
2023-04-01T20:30:29.263Z,99784.30
2023-04-01T20:33:03.654Z,99785.13
2023-04-01T20:35:42.895Z,99787.05
2023-04-01T20:38:32.814Z,99793.97
2023-04-01T20:41:01.824Z,99795.09
2023-04-01T20:43:29.948Z,99796.16
2023-04-01T20:46:08.123Z,99802.82
2023-04-01T20:48:59.360Z,99806.98
2023-04-01T20:51:35.889Z,99807.88
2023-04-01T20:54:28.129Z,99817.96
2023-04-01T20:57:06.995Z,99821.02
2023-04-01T21:00:09.317Z,99820.63
2023-04-01T21:03:15.792Z,99823.22
2023-04-01T21:05:57.197Z,99824.88
2023-04-01T21:08:43.860Z,99823.64
2023-04-01T21:11:47.263Z,99824.91
2023-04-01T21:14:49.662Z,99826.07
2023-04-01T21:17:36.765Z,99832.31
2023-04-01T21:20:45.309Z,99834.73
2023-04-01T21:23:22.310Z,99839.20
2023-04-01T21:26:29.641Z,99847.70
2023-04-01T21:29:20.257Z,99846.27
2023-04-01T21:32:34.695Z,99845.65
2023-04-01T21:35:25.279Z,99851.01
2023-04-01T21:38:08.674Z,99848.33
2023-04-01T21:40:37.105Z,99852.23
2023-04-01T21:43:25.188Z,99852.55
2023-04-01T21:46:12.675Z,99854.27
2023-04-01T21:48:59.668Z,99856.80
2023-04-01T21:51:52.619Z,99861.27
2023-04-01T21:54:45.771Z,99864.86
2023-04-01T21:57:29.212Z,99875.01
2023-04-01T22:00:19.803Z,99874.52
2023-04-01T22:03:24.016Z,99873.14
2023-04-01T22:06:12.333Z,99874.79
2023-04-01T22:09:09.596Z,99879.25
2023-04-01T22:12:07.000Z,99884.25
2023-04-01T22:15:07.812Z,99886.21
2023-04-01T22:17:56.542Z,99889.67
2023-04-01T22:20:40.017Z,99896.66
2023-04-01T22:23:26.769Z,99891.52
2023-04-01T22:25:56.084Z,99896.21
2023-04-01T22:29:01.247Z,99900.92
2023-04-01T22:32:01.623Z,99903.40
2023-04-01T22:34:49.039Z,99904.39
2023-04-01T22:37:33.417Z,99911.45
2023-04-01T22:40:47.348Z,99912.88
2023-04-01T22:43:39.445Z,99914.89
2023-04-01T22:46:50.839Z,99919.16
2023-04-01T22:49:34.036Z,99922.65
2023-04-01T22:52:31.463Z,99925.89
2023-04-01T22:55:05.713Z,99926.14
2023-04-01T22:57:43.355Z,99929.77
2023-04-01T23:00:29.908Z,99930.19
2023-04-01T23:03:13.232Z,99932.26
2023-04-01T23:05:48.654Z,99937.59
2023-04-01T23:08:51.726Z,99936.79
2023-04-01T23:11:26.988Z,99944.88
2023-04-01T23:13:57.774Z,99948.71
2023-04-01T23:16:48.895Z,99951.42
2023-04-01T23:19:36.224Z,99951.39
2023-04-01T23:22:37.176Z,99954.33
2023-04-01T23:25:25.236Z,99958.05
2023-04-01T23:28:18.337Z,99959.94
2023-04-01T23:30:46.646Z,99965.51
2023-04-01T23:33:20.883Z,99965.17
2023-04-01T23:36:09.095Z,99962.48
2023-04-01T23:38:42.546Z,99962.25
2023-04-01T23:41:21.617Z,99964.72
2023-04-01T23:44:14.755Z,99964.19
2023-04-01T23:46:47.582Z,99967.61
2023-04-01T23:49:21.652Z,99977.41
2023-04-01T23:51:57.954Z,99977.91
2023-04-01T23:54:43.290Z,99981.07
2023-04-01T23:57:20.940Z,99992.30
